Latest Weather Observations for Newman Airport

IDW60801

Issued at 8:05 pm WST Saturday 25 October 2014 (issued every 30 minutes, with the page automatically refreshed every 10 minutes)

About weather observations | Map of weather stations | Latest weather observations for WA | Other Formats
Station Details ID: 007176 Name: NEWMAN AERO Lat: -23.42 Lon: 119.80 Height: 524.0 m
Data from the previous 72 hours. | See also: Recent months at Newman Airport
Date/Time
WST
Temp
°C
App
Temp
°C
Dew
Point
Rel
Hum
%
Delta-T
°C
Wind Press
QNH
hPa
Press
MSL
hPa
Rain
since 9 am
mm
Dir
 
Spd
km/h
Gust
km/h
Spd
kts
Gust
kts
25/08:00pm 32.3 26.7 -3.2 10 16.7 SW 17 24 9 13 1016.1 1012.8 0.0
25/07:30pm 32.7 27.3 -4.3 9 17.2 SW 15 20 8 11 1015.8 1012.5 0.0
25/07:00pm 33.4 28.1 -3.7 9 17.5 SW 15 20 8 11 1015.6 1012.3 0.0
25/06:30pm 34.5 28.7 -4.5 8 18.3 SW 17 26 9 14 1015.1 1011.8 0.0
25/06:00pm 35.5 29.0 -5.5 7 19.0 SW 20 30 11 16 1014.8 1011.5 0.0
25/05:30pm 36.4 29.6 -4.9 7 19.5 SW 22 32 12 17 1014.6 1011.3 0.0
25/05:00pm 37.3 30.6 -4.2 7 19.9 SW 22 32 12 17 1014.3 1011.0 0.0
25/04:30pm 37.7 30.8 -6.0 6 20.5 SW 22 37 12 20 1014.1 1010.8 0.0
25/04:00pm 38.6 32.2 -5.3 6 20.9 W 20 30 11 16 1014.1 1010.8 0.0
25/03:30pm 38.3 32.4 -5.5 6 20.7 SW 17 30 9 16 1014.2 1010.9 0.0
25/03:00pm 38.5 33.0 -5.4 6 20.9 SW 15 24 8 13 1014.3 1011.0 0.0
25/02:30pm 38.2 32.9 -3.6 7 20.4 S 15 30 8 16 1014.4 1011.1 0.0
25/02:00pm 38.0 31.5 -5.8 6 20.6 WNW 20 24 11 13 1014.8 1011.5 0.0
25/01:30pm 39.5 33.7 -4.7 6 21.4 SW 17 35 9 19 1014.9 1011.6 0.0
25/01:00pm 37.6 32.6 -4.0 7 20.1 SSE 13 28 7 15 1015.4 1012.1 0.0
25/12:30pm 37.2 32.2 -4.3 7 19.9 SSW 13 22 7 12 1015.6 1012.3 0.0
25/12:00pm 36.8 30.6 -4.6 7 19.7 SW 19 35 10 19 1016.0 1012.7 0.0
25/11:30am 37.1 30.4 -4.4 7 19.8 SW 22 32 12 17 1016.4 1013.1 0.0
25/11:00am 36.1 30.1 -3.3 8 19.0 SSW 19 28 10 15 1016.7 1013.4 0.0
25/10:30am 35.7 29.6 -2.0 9 18.5 SSW 20 32 11 17 1017.2 1014.0 0.0
25/10:00am 35.1 28.6 -2.5 9 18.2 SSW 22 32 12 17 1017.5 1014.2 0.0
25/09:30am 34.7 28.7 -2.8 9 18.1 SSW 19 26 10 14 1017.6 1014.3 0.0
25/09:00am 34.0 28.9 -1.9 10 17.5 SSW 15 26 8 14 1017.6 1014.3 0.0
25/08:30am 31.9 27.3 -1.0 12 16.0 SSW 13 19 7 10 1017.8 1014.5 0.0
25/08:00am 30.0 24.7 -0.4 14 14.8 SSW 17 26 9 14 1017.7 1014.4 0.0
25/07:30am 28.8 24.2 1.3 17 13.7 SSW 15 19 8 10 1017.4 1014.1 0.0
25/07:00am 26.7 22.5 1.9 20 12.3 SW 13 17 7 9 1016.9 1013.6 0.0
25/06:30am 24.6 21.1 3.3 25 10.7 WSW 11 13 6 7 1016.8 1013.5 0.0
25/06:00am 24.0 20.0 2.8 25 10.5 WSW 13 19 7 10 1016.4 1013.1 0.0
25/05:30am 23.0 19.4 3.0 27 9.8 WSW 11 13 6 7 1016.0 1012.7 0.0
25/05:00am 23.2 19.6 3.2 27 9.9 W 11 15 6 8 1015.9 1012.6 0.0
25/04:30am 24.6 21.0 2.7 24 10.8 SW 11 19 6 10 1015.6 1012.3 0.0
25/04:00am 24.5 20.5 2.6 24 10.8 WSW 13 15 7 8 1015.1 1011.8 0.0
25/03:30am 25.3 21.6 2.1 22 11.4 W 11 15 6 8 1015.1 1011.8 0.0
25/03:00am 26.3 21.4 2.3 21 11.9 SW 17 20 9 11 1014.9 1011.6 0.0
25/02:30am 27.2 22.7 2.3 20 12.5 SW 15 19 8 10 1015.0 1011.7 0.0
25/02:00am 27.8 23.7 2.1 19 12.9 WSW 13 15 7 8 1014.9 1011.6 0.0
25/01:30am 29.6 25.3 1.1 16 14.2 SSW 13 17 7 9 1014.8 1011.5 0.0
25/01:00am 31.1 26.0 0.5 14 15.2 SSW 17 22 9 12 1014.8 1011.5 0.0
25/12:30am 31.4 26.0 2.6 16 14.9 WSW 20 26 11 14 1014.7 1011.4 0.0
25/12:00am 31.3 28.8 6.4 21 13.7 ENE 9 13 5 7 1014.7 1011.4 0.0
 
Date/Time
WST
Temp
°C
App
Temp
°C
Dew
Point
Rel
Hum
%
Delta-T
°C
Wind Press
QNH
hPa
Press
MSL
hPa
Rain
since 9 am
mm
Dir
 
Spd
km/h
Gust
km/h
Spd
kts
Gust
kts
24/11:30pm 31.4 29.7 5.8 20 13.9 ENE 4 11 2 6 1014.7 1011.4 0.0
24/11:00pm 32.3 29.8 5.0 18 14.7 N 7 13 4 7 1015.0 1011.7 0.0
24/10:30pm 31.7 28.9 5.3 19 14.3 WNW 9 13 5 7 1015.1 1011.8 0.0
24/10:00pm 32.1 30.3 5.6 19 14.4 SSW 4 9 2 5 1014.5 1011.2 0.0
24/09:30pm 32.8 30.1 5.4 18 14.9 SSE 9 17 5 9 1014.2 1010.9 0.0
24/09:00pm 33.6 30.8 5.2 17 15.5 N 9 15 5 8 1014.0 1010.7 0.0
24/08:30pm 34.2 30.9 4.8 16 16.0 N 11 17 6 9 1013.8 1010.5 0.0
24/08:00pm 34.2 31.5 5.7 17 15.7 N 9 13 5 7 1013.5 1010.1 0.0
24/07:30pm 35.0 32.1 4.5 15 16.6 NE 9 13 5 7 1013.1 1009.8 0.0
24/07:00pm 35.0 30.6 4.5 15 16.6 ENE 17 22 9 12 1012.7 1009.4 0.0
24/06:30pm 35.7 32.7 4.1 14 17.1 SSE 9 17 5 9 1012.2 1008.9 0.0
24/06:00pm 37.2 33.2 0.5 10 19.0 WSW 11 17 6 9 1011.6 1008.2 0.0
24/05:30pm 38.0 34.1 1.1 10 19.3 WSW 11 26 6 14 1011.2 1007.9 0.0
24/05:00pm 38.2 35.0 -0.2 9 19.8 WNW 6 13 3 7 1010.9 1007.6 0.0
24/04:30pm 37.8 33.7 -0.5 9 19.5 N 11 15 6 8 1010.9 1007.6 0.0
24/04:00pm 38.5 35.2 0.0 9 19.9 W 7 15 4 8 1011.0 1007.7 0.0
24/03:30pm 39.5 35.3 -0.8 8 20.7 NW 11 20 6 11 1011.2 1007.9 0.0
24/03:00pm 39.4 34.8 -0.9 8 20.6 WNW 13 30 7 16 1011.5 1008.1 0.0
24/02:30pm 38.5 34.8 0.0 9 19.9 N 9 15 5 8 1011.7 1008.3 0.0
24/02:00pm 38.8 34.0 0.3 9 20.0 W 15 26 8 14 1012.0 1008.7 0.0
24/01:30pm 38.8 34.8 0.3 9 20.0 E 11 17 6 9 1012.4 1009.1 0.0
24/01:00pm 37.9 33.6 1.0 10 19.3 WNW 13 24 7 13 1012.9 1009.6 0.0
24/12:30pm 38.1 34.6 1.2 10 19.4 NW 9 20 5 11 1013.2 1009.9 0.0
24/12:00pm 38.1 34.4 2.5 11 19.1 WNW 11 26 6 14 1013.6 1010.2 0.0
24/11:30am 36.2 32.1 2.3 12 17.9 NW 13 20 7 11 1014.2 1010.9 0.0
24/11:00am 36.4 32.7 2.4 12 18.0 NNW 11 20 6 11 1014.6 1011.3 0.0
24/10:30am 36.2 33.4 2.3 12 17.9 ESE 6 13 3 7 1014.9 1011.6 0.0
24/10:00am 35.1 32.8 2.6 13 17.1 W 4 11 2 6 1015.4 1012.1 0.0
24/09:30am 34.6 31.0 3.2 14 16.7 S 11 17 6 9 1015.7 1012.4 0.0
24/09:00am 33.4 29.9 3.3 15 15.9 S 11 17 6 9 1015.9 1012.6 0.0
24/08:30am 31.3 28.9 4.2 18 14.4 S 6 11 3 6 1016.0 1012.7 0.0
24/08:00am 30.2 27.7 4.8 20 13.5 SSE 7 13 4 7 1016.0 1012.7 0.0
24/07:30am 28.2 25.0 5.1 23 12.2 SSE 11 17 6 9 1015.9 1012.6 0.0
24/07:00am 26.1 23.6 6.7 29 10.4 SSW 9 13 5 7 1015.8 1012.5 0.0
24/06:30am 24.1 21.8 7.3 34 9.0 SW 9 13 5 7 1016.0 1012.7 0.0
24/06:00am 22.7 20.4 7.3 37 8.2 WSW 9 11 5 6 1015.6 1012.3 0.0
24/05:30am 22.5 20.1 7.1 37 8.2 WSW 9 13 5 7 1015.6 1012.3 0.0
24/05:00am 23.1 20.4 7.2 36 8.5 WSW 11 13 6 7 1015.4 1012.1 0.0
24/04:30am 23.3 21.4 7.4 36 8.5 WSW 7 11 4 6 1015.4 1012.1 0.0
24/04:00am 23.5 21.2 7.6 36 8.5 WSW 9 11 5 6 1014.8 1011.5 0.0
24/03:30am 23.2 21.0 7.7 37 8.3 WSW 9 13 5 7 1014.6 1011.3 0.0
24/03:00am 23.2 21.9 7.7 37 8.3 WNW 4 7 2 4 1014.4 1011.1 0.0
24/02:30am 22.8 20.6 7.8 38 8.1 WSW 9 9 5 5 1014.2 1010.9 0.0
24/02:00am 23.0 20.7 7.5 37 8.3 WSW 9 11 5 6 1014.3 1011.0 0.0
24/01:30am 23.8 21.0 7.0 34 8.9 WSW 11 15 6 8 1014.5 1011.2 0.0
24/01:00am 24.7 21.9 6.9 32 9.5 SW 11 15 6 8 1014.7 1011.4 0.0
24/12:30am 24.3 21.4 6.6 32 9.4 S 11 17 6 9 1015.0 1011.7 0.0
24/12:00am 24.1 21.5 5.9 31 9.5 SSW 9 13 5 7 1015.1 1011.8 0.0
 
Date/Time
WST
Temp
°C
App
Temp
°C
Dew
Point
Rel
Hum
%
Delta-T
°C
Wind Press
QNH
hPa
Press
MSL
hPa
Rain
since 9 am
mm
Dir
 
Spd
km/h
Gust
km/h
Spd
kts
Gust
kts
23/11:30pm 25.2 24.4 6.4 30 10.0 CALM 0 0 0 0 1015.4 1012.1 0.0
23/11:00pm 26.2 25.4 6.3 28 10.6 CALM 0 4 0 2 1015.5 1012.2 0.0
23/10:30pm 25.7 23.4 5.8 28 10.5 WSW 7 7 4 4 1015.4 1012.1 0.0
23/10:00pm 26.3 24.1 6.3 28 10.7 W 7 9 4 5 1015.5 1012.2 0.0
23/09:30pm 27.0 24.7 5.9 26 11.2 W 7 7 4 4 1015.6 1012.3 0.0
23/09:00pm 28.8 26.7 5.6 23 12.4 NW 6 7 3 4 1015.5 1012.2 0.0
23/08:30pm 29.2 27.0 6.0 23 12.5 W 7 9 4 5 1015.1 1011.8 0.0
23/08:00pm 30.2 27.9 5.5 21 13.3 WSW 7 11 4 6 1015.0 1011.7 0.0
23/07:30pm 31.5 27.9 5.1 19 14.2 SW 13 17 7 9 1014.6 1011.3 0.0
23/07:00pm 32.3 28.7 5.0 18 14.7 SW 13 19 7 10 1014.3 1011.0 0.0
23/06:30pm 33.2 29.2 4.9 17 15.3 SW 15 20 8 11 1013.8 1010.5 0.0
23/06:00pm 34.1 30.4 4.7 16 15.9 SW 13 19 7 10 1013.5 1010.1 0.0
23/05:30pm 35.2 31.2 4.7 15 16.6 SW 15 20 8 11 1013.1 1009.8 0.0
23/05:00pm 35.6 30.7 4.0 14 17.1 SSW 19 26 10 14 1012.9 1009.6 0.0
23/04:30pm 36.4 32.3 4.6 14 17.4 SW 15 20 8 11 1012.8 1009.5 0.0
23/04:00pm 36.6 33.3 4.8 14 17.5 SSW 11 17 6 9 1012.7 1009.4 0.0
23/03:30pm 36.5 33.2 4.7 14 17.5 SW 11 20 6 11 1012.8 1009.5 0.0
23/03:00pm 35.5 32.1 3.9 14 17.0 S 11 19 6 10 1013.0 1009.7 0.0
23/02:30pm 36.3 32.8 3.5 13 17.7 SW 11 17 6 9 1013.2 1009.9 0.0
23/02:00pm 36.0 32.5 5.3 15 17.0 WSW 13 26 7 14 1013.4 1010.0 0.0
23/01:30pm 35.8 31.8 5.1 15 16.9 SW 15 20 8 11 1013.7 1010.4 0.0
23/01:00pm 35.1 31.8 4.6 15 16.6 SSW 11 22 6 12 1014.2 1010.9 0.0
23/12:30pm 35.4 31.6 5.8 16 16.4 W 15 26 8 14 1014.6 1011.3 0.0
23/12:00pm 34.6 30.1 6.8 18 15.6 S 20 30 11 16 1014.9 1011.6 0.0
23/11:30am 33.9 31.1 8.5 21 14.6 SSW 13 20 7 11 1015.4 1012.1 0.0
23/11:00am 32.8 29.9 8.3 22 14.0 SSE 13 20 7 11 1015.7 1012.4 0.0
23/10:30am 32.4 28.6 9.2 24 13.4 S 19 28 10 15 1016.1 1012.8 0.0
23/10:00am 31.1 27.2 9.3 26 12.5 S 20 28 11 15 1016.4 1013.1 0.0
23/09:30am 30.3 26.5 9.2 27 12.1 S 19 24 10 13 1016.6 1013.3 0.0
23/09:00am 29.6 25.1 8.6 27 11.8 SSE 22 30 12 16 1016.8 1013.5 0.0
23/08:30am 28.6 23.9 9.3 30 11.0 S 24 35 13 19 1016.9 1013.6 0.0
23/08:00am 27.3 24.0 8.2 30 10.6 S 15 22 8 12 1016.9 1013.6 0.0
23/07:30am 26.2 23.3 8.2 32 9.9 SW 13 17 7 9 1016.7 1013.4 0.0
23/07:00am 25.4 22.9 8.0 33 9.5 SW 11 15 6 8 1016.3 1013.0 0.0
23/06:30am 24.6 22.4 7.7 34 9.2 WSW 9 13 5 7 1016.1 1012.8 0.0
23/06:00am 23.8 21.9 7.4 35 8.8 SW 7 9 4 5 1015.8 1012.5 0.0
23/05:30am 24.1 21.7 6.8 33 9.2 WSW 9 11 5 6 1015.6 1012.3 0.0
23/05:00am 24.3 21.9 7.0 33 9.2 WSW 9 11 5 6 1015.4 1012.1 0.0
23/04:30am 24.0 21.5 6.7 33 9.2 WSW 9 11 5 6 1015.0 1011.7 0.0
23/04:00am 24.3 22.1 6.1 31 9.6 W 7 7 4 4 1014.9 1011.6 0.0
23/03:30am 24.8 22.6 6.1 30 9.9 WSW 7 9 4 5 1014.7 1011.4 0.0
23/03:00am 25.4 22.7 5.6 28 10.4 WSW 9 11 5 6 1014.5 1011.2 0.0
23/02:30am 26.1 23.0 5.7 27 10.8 SW 11 15 6 8 1014.6 1011.3 0.0
23/02:00am 26.6 23.1 5.5 26 11.1 SSW 13 17 7 9 1014.6 1011.3 0.0
23/01:30am 26.3 23.1 5.3 26 11.0 SSW 11 15 6 8 1014.7 1011.4 0.0
23/01:00am 26.5 24.0 4.9 25 11.3 S 7 9 4 5 1014.9 1011.6 0.0
23/12:30am 27.5 24.3 5.1 24 11.8 SSW 11 15 6 8 1015.0 1011.7 0.0
23/12:00am 28.2 24.5 4.5 22 12.4 SSW 13 20 7 11 1015.4 1012.1 0.0
 
Date/Time
WST
Temp
°C
App
Temp
°C
Dew
Point
Rel
Hum
%
Delta-T
°C
Wind Press
QNH
hPa
Press
MSL
hPa
Rain
since 9 am
mm
Dir
 
Spd
km/h
Gust
km/h
Spd
kts
Gust
kts
22/11:30pm 28.8 23.9 4.3 21 12.8 SW 19 24 10 13 1015.4 1012.1 0.0
22/11:00pm 28.9 24.1 4.4 21 12.8 SW 19 28 10 15 1015.8 1012.5 0.0
22/10:30pm 29.0 24.0 4.5 21 12.9 SW 20 30 11 16 1016.0 1012.7 0.0
22/10:00pm 29.0 23.8 3.8 20 13.1 SW 20 30 11 16 1016.1 1012.8 0.0
22/09:30pm 28.5 24.9 0.3 16 13.7 WSW 9 13 5 7 1016.1 1012.8 0.0
22/09:00pm 28.8 24.7 -0.4 15 14.1 WSW 11 13 6 7 1016.2 1012.9 0.0
22/08:30pm 28.3 25.3 0.9 17 13.5 SW 6 7 3 4 1016.1 1012.8 0.0

Other Formats:

Comma delimited format used in spreadsheet applications
http://www.bom.gov.au/fwo/IDW60801/IDW60801.94317.axf

JavaScript Object Notation format (JSON) in row-major order
http://www.bom.gov.au/fwo/IDW60801/IDW60801.94317.json